Search for airport 
image banner adimage banner adimage banner ad
image banner ad

7PN0 - Tidmore

Located in Minersville, United States

ICAO - 7PN0, IATA -

Data provided by Airmate  

General information

Coordinates: N40°42'18" W76°14'11"
Elevation is 930 feet MSL.
Magnetic variation is -11° East
View others Airports in Pennsylvania

Operational data

Special qualification required
Current time UTC:
Current local time:
Weather at : KHZL - Hazleton Rgnl ( 37 km )
METAR: KHZL 071335Z AUTO 11006KT 070V150 10SM SCT080 12/M03 A2993 RMK AO2
View NOTAMs / SUP AIP / TFR affecting this airport [VIEW]
Communications frequencies: [VIEW]

Runways:

RWY identifierQFULength (ft)Width (ft)SurfaceLDA (ft)
082000150GRASS
262000150GRASS

Airport contact information

Address: Minersville United States

Satellite view of 7PN0